Terminal Aerodrome Forecast
Issued by NWS St Louis, MO

Home | Current Version | Previous Version | Text Only | Print | Product List | Glossary On
Versions: 1 2 3 4 5 6 7 8 9 10 11 12 13 14 15 16 17
000
FTUS43 KLSX 230520
TAFCOU
TAF
KCOU 230520Z 2306/2406 07005KT P6SM OVC080
     FM230700 10004KT 6SM -SHRA OVC060
     FM231200 16004KT P6SM VCSH OVC040
     FM231400 29005KT P6SM VCSH OVC025
     FM231700 31007KT P6SM VCTS BKN035CB
     FM232000 31010KT P6SM BKN040=

USA.gov is the U.S. government's official web portal to all federal, state and local government web resources and services.